sensor_id;sensor_type;location;lat;lon;timestamp;P1;durP1;ratioP1;P2;durP2;ratioP2
53646;SDS011;39550;52.230;5.194;2023-04-25T00:00:25;10.63;;;4.13;;
53646;SDS011;39550;52.230;5.194;2023-04-25T00:02:50;9.90;;;4.63;;
53646;SDS011;39550;52.230;5.194;2023-04-25T00:05:16;8.80;;;4.03;;
53646;SDS011;39550;52.230;5.194;2023-04-25T00:07:41;9.73;;;4.28;;
53646;SDS011;39550;52.230;5.194;2023-04-25T00:10:08;9.15;;;3.95;;
53646;SDS011;39550;52.230;5.194;2023-04-25T00:12:33;7.63;;;3.92;;
53646;SDS011;39550;52.230;5.194;2023-04-25T00:14:59;10.82;;;4.15;;
53646;SDS011;39550;52.230;5.194;2023-04-25T00:17:24;9.35;;;4.40;;
53646;SDS011;39550;52.230;5.194;2023-04-25T00:19:50;8.02;;;4.18;;
53646;SDS011;39550;52.230;5.194;2023-04-25T00:22:16;7.93;;;4.03;;
53646;SDS011;39550;52.230;5.194;2023-04-25T00:24:42;9.95;;;4.35;;
53646;SDS011;39550;52.230;5.194;2023-04-25T00:27:07;7.07;;;3.22;;
53646;SDS011;39550;52.230;5.194;2023-04-25T00:29:33;6.88;;;3.60;;
53646;SDS011;39550;52.230;5.194;2023-04-25T00:31:59;9.80;;;3.78;;
53646;SDS011;39550;52.230;5.194;2023-04-25T00:34:24;10.77;;;4.43;;
53646;SDS011;39550;52.230;5.194;2023-04-25T00:36:49;8.13;;;4.10;;
53646;SDS011;39550;52.230;5.194;2023-04-25T00:39:15;10.38;;;4.40;;
53646;SDS011;39550;52.230;5.194;2023-04-25T00:41:40;9.60;;;3.95;;
53646;SDS011;39550;52.230;5.194;2023-04-25T00:44:06;7.57;;;3.42;;
53646;SDS011;39550;52.230;5.194;2023-04-25T00:46:33;8.90;;;4.20;;
53646;SDS011;39550;52.230;5.194;2023-04-25T00:49:00;7.30;;;3.65;;
53646;SDS011;39550;52.230;5.194;2023-04-25T00:51:25;8.30;;;3.92;;
53646;SDS011;39550;52.230;5.194;2023-04-25T00:53:51;9.60;;;4.22;;
53646;SDS011;39550;52.230;5.194;2023-04-25T00:56:17;7.60;;;3.40;;
53646;SDS011;39550;52.230;5.194;2023-04-25T00:58:42;9.52;;;3.50;;
53646;SDS011;39550;52.230;5.194;2023-04-25T01:01:08;11.98;;;4.53;;
53646;SDS011;39550;52.230;5.194;2023-04-25T01:03:34;6.40;;;3.70;;
53646;SDS011;39550;52.230;5.194;2023-04-25T01:06:06;6.75;;;3.40;;
53646;SDS011;39550;52.230;5.194;2023-04-25T01:08:32;8.52;;;4.20;;
53646;SDS011;39550;52.230;5.194;2023-04-25T01:10:59;10.35;;;4.03;;
53646;SDS011;39550;52.230;5.194;2023-04-25T01:13:24;9.68;;;3.88;;
53646;SDS011;39550;52.230;5.194;2023-04-25T01:15:49;8.40;;;3.58;;
53646;SDS011;39550;52.230;5.194;2023-04-25T01:18:15;10.20;;;4.07;;
53646;SDS011;39550;52.230;5.194;2023-04-25T01:20:41;10.00;;;4.03;;
53646;SDS011;39550;52.230;5.194;2023-04-25T01:23:06;8.50;;;3.92;;
53646;SDS011;39550;52.230;5.194;2023-04-25T01:25:32;9.88;;;3.72;;
53646;SDS011;39550;52.230;5.194;2023-04-25T01:27:58;8.57;;;4.00;;
53646;SDS011;39550;52.230;5.194;2023-04-25T01:30:25;11.95;;;4.68;;
53646;SDS011;39550;52.230;5.194;2023-04-25T01:32:51;10.60;;;3.67;;
53646;SDS011;39550;52.230;5.194;2023-04-25T01:35:19;7.97;;;4.18;;
53646;SDS011;39550;52.230;5.194;2023-04-25T01:37:44;8.55;;;3.85;;
53646;SDS011;39550;52.230;5.194;2023-04-25T01:40:10;8.50;;;3.65;;
53646;SDS011;39550;52.230;5.194;2023-04-25T01:42:37;7.90;;;3.53;;
53646;SDS011;39550;52.230;5.194;2023-04-25T01:45:04;10.27;;;4.00;;
53646;SDS011;39550;52.230;5.194;2023-04-25T01:47:30;12.10;;;4.22;;
53646;SDS011;39550;52.230;5.194;2023-04-25T01:49:56;7.53;;;3.78;;
53646;SDS011;39550;52.230;5.194;2023-04-25T01:52:21;8.45;;;3.63;;
53646;SDS011;39550;52.230;5.194;2023-04-25T01:54:46;8.10;;;3.72;;
53646;SDS011;39550;52.230;5.194;2023-04-25T01:57:13;8.70;;;3.83;;
53646;SDS011;39550;52.230;5.194;2023-04-25T01:59:38;10.45;;;3.53;;
53646;SDS011;39550;52.230;5.194;2023-04-25T02:02:05;8.15;;;3.65;;
53646;SDS011;39550;52.230;5.194;2023-04-25T02:04:31;9.35;;;3.78;;
53646;SDS011;39550;52.230;5.194;2023-04-25T02:06:56;8.77;;;3.80;;
53646;SDS011;39550;52.230;5.194;2023-04-25T02:09:22;8.70;;;3.75;;
53646;SDS011;39550;52.230;5.194;2023-04-25T02:11:47;9.07;;;3.92;;
53646;SDS011;39550;52.230;5.194;2023-04-25T02:14:12;7.72;;;3.53;;
53646;SDS011;39550;52.230;5.194;2023-04-25T02:16:38;8.77;;;3.80;;
53646;SDS011;39550;52.230;5.194;2023-04-25T02:19:03;9.88;;;4.38;;
53646;SDS011;39550;52.230;5.194;2023-04-25T02:21:29;9.57;;;3.65;;
53646;SDS011;39550;52.230;5.194;2023-04-25T02:23:55;7.97;;;3.63;;
53646;SDS011;39550;52.230;5.194;2023-04-25T02:26:21;7.28;;;3.75;;
53646;SDS011;39550;52.230;5.194;2023-04-25T02:28:46;10.68;;;4.05;;
53646;SDS011;39550;52.230;5.194;2023-04-25T02:31:11;7.35;;;3.67;;
53646;SDS011;39550;52.230;5.194;2023-04-25T02:33:37;7.82;;;3.40;;
53646;SDS011;39550;52.230;5.194;2023-04-25T02:36:02;8.38;;;3.20;;
53646;SDS011;39550;52.230;5.194;2023-04-25T02:38:28;6.40;;;3.45;;
53646;SDS011;39550;52.230;5.194;2023-04-25T02:40:53;7.20;;;3.78;;
53646;SDS011;39550;52.230;5.194;2023-04-25T02:43:18;8.50;;;3.80;;
53646;SDS011;39550;52.230;5.194;2023-04-25T02:45:45;8.05;;;3.88;;
53646;SDS011;39550;52.230;5.194;2023-04-25T02:48:10;8.27;;;3.20;;
53646;SDS011;39550;52.230;5.194;2023-04-25T02:50:36;8.85;;;3.65;;
53646;SDS011;39550;52.230;5.194;2023-04-25T02:53:01;7.95;;;3.47;;
53646;SDS011;39550;52.230;5.194;2023-04-25T02:55:26;9.98;;;3.72;;
53646;SDS011;39550;52.230;5.194;2023-04-25T02:57:52;9.57;;;3.88;;
53646;SDS011;39550;52.230;5.194;2023-04-25T03:00:17;8.95;;;3.42;;
53646;SDS011;39550;52.230;5.194;2023-04-25T03:02:42;7.05;;;3.83;;
53646;SDS011;39550;52.230;5.194;2023-04-25T03:05:08;7.65;;;3.65;;
53646;SDS011;39550;52.230;5.194;2023-04-25T03:07:33;8.38;;;3.63;;
53646;SDS011;39550;52.230;5.194;2023-04-25T03:09:59;6.93;;;3.28;;
53646;SDS011;39550;52.230;5.194;2023-04-25T03:12:24;12.18;;;4.43;;
53646;SDS011;39550;52.230;5.194;2023-04-25T03:14:49;9.23;;;3.90;;
53646;SDS011;39550;52.230;5.194;2023-04-25T03:17:15;11.43;;;4.15;;
53646;SDS011;39550;52.230;5.194;2023-04-25T03:19:40;10.18;;;3.38;;
53646;SDS011;39550;52.230;5.194;2023-04-25T03:22:06;8.73;;;4.13;;
53646;SDS011;39550;52.230;5.194;2023-04-25T03:24:31;8.68;;;4.47;;
53646;SDS011;39550;52.230;5.194;2023-04-25T03:26:56;8.93;;;3.80;;
53646;SDS011;39550;52.230;5.194;2023-04-25T03:29:22;10.38;;;4.20;;
53646;SDS011;39550;52.230;5.194;2023-04-25T03:31:49;8.10;;;3.15;;
53646;SDS011;39550;52.230;5.194;2023-04-25T03:34:15;8.57;;;3.38;;
53646;SDS011;39550;52.230;5.194;2023-04-25T03:36:40;8.40;;;3.30;;
53646;SDS011;39550;52.230;5.194;2023-04-25T03:39:05;7.43;;;4.05;;
53646;SDS011;39550;52.230;5.194;2023-04-25T03:41:31;11.15;;;3.83;;
53646;SDS011;39550;52.230;5.194;2023-04-25T03:43:56;7.88;;;3.53;;
53646;SDS011;39550;52.230;5.194;2023-04-25T03:46:21;7.40;;;3.22;;
53646;SDS011;39550;52.230;5.194;2023-04-25T03:48:47;7.80;;;3.85;;
53646;SDS011;39550;52.230;5.194;2023-04-25T03:51:12;10.57;;;4.18;;
53646;SDS011;39550;52.230;5.194;2023-04-25T03:53:37;8.80;;;4.05;;
53646;SDS011;39550;52.230;5.194;2023-04-25T03:56:03;9.23;;;3.88;;
53646;SDS011;39550;52.230;5.194;2023-04-25T03:58:28;7.60;;;3.30;;
53646;SDS011;39550;52.230;5.194;2023-04-25T04:00:54;8.30;;;3.70;;
53646;SDS011;39550;52.230;5.194;2023-04-25T04:03:19;6.70;;;3.08;;
53646;SDS011;39550;52.230;5.194;2023-04-25T04:05:45;7.70;;;3.20;;
53646;SDS011;39550;52.230;5.194;2023-04-25T04:08:11;7.63;;;3.30;;
53646;SDS011;39550;52.230;5.194;2023-04-25T04:10:36;7.55;;;3.65;;
53646;SDS011;39550;52.230;5.194;2023-04-25T04:13:02;6.18;;;3.08;;
53646;SDS011;39550;52.230;5.194;2023-04-25T04:15:27;8.10;;;3.50;;
53646;SDS011;39550;52.230;5.194;2023-04-25T04:17:52;7.68;;;3.22;;
53646;SDS011;39550;52.230;5.194;2023-04-25T04:20:19;12.10;;;3.92;;
53646;SDS011;39550;52.230;5.194;2023-04-25T04:22:44;8.23;;;3.22;;
53646;SDS011;39550;52.230;5.194;2023-04-25T04:25:09;7.57;;;3.50;;
53646;SDS011;39550;52.230;5.194;2023-04-25T04:27:36;9.85;;;3.35;;
53646;SDS011;39550;52.230;5.194;2023-04-25T04:30:02;6.25;;;2.90;;
53646;SDS011;39550;52.230;5.194;2023-04-25T04:32:28;8.45;;;3.40;;
53646;SDS011;39550;52.230;5.194;2023-04-25T04:34:55;7.55;;;3.50;;
53646;SDS011;39550;52.230;5.194;2023-04-25T04:37:20;6.70;;;3.40;;
53646;SDS011;39550;52.230;5.194;2023-04-25T04:39:47;6.50;;;2.90;;
53646;SDS011;39550;52.230;5.194;2023-04-25T04:42:12;9.73;;;3.40;;
53646;SDS011;39550;52.230;5.194;2023-04-25T04:44:38;6.72;;;3.13;;
53646;SDS011;39550;52.230;5.194;2023-04-25T04:47:04;7.80;;;3.65;;
53646;SDS011;39550;52.230;5.194;2023-04-25T04:49:31;9.02;;;3.13;;
53646;SDS011;39550;52.230;5.194;2023-04-25T04:51:57;7.78;;;3.17;;
53646;SDS011;39550;52.230;5.194;2023-04-25T04:54:22;8.73;;;3.55;;
53646;SDS011;39550;52.230;5.194;2023-04-25T04:56:47;9.98;;;3.50;;
53646;SDS011;39550;52.230;5.194;2023-04-25T04:59:13;7.70;;;2.85;;
53646;SDS011;39550;52.230;5.194;2023-04-25T05:01:38;7.38;;;2.92;;
53646;SDS011;39550;52.230;5.194;2023-04-25T05:04:03;6.57;;;3.30;;
53646;SDS011;39550;52.230;5.194;2023-04-25T05:06:29;5.32;;;2.55;;
53646;SDS011;39550;52.230;5.194;2023-04-25T05:08:56;7.43;;;3.20;;
53646;SDS011;39550;52.230;5.194;2023-04-25T05:11:22;6.38;;;3.10;;
53646;SDS011;39550;52.230;5.194;2023-04-25T05:13:49;9.88;;;3.42;;
53646;SDS011;39550;52.230;5.194;2023-04-25T05:16:16;6.20;;;2.70;;
53646;SDS011;39550;52.230;5.194;2023-04-25T05:18:41;5.72;;;3.17;;
53646;SDS011;39550;52.230;5.194;2023-04-25T05:21:07;8.13;;;2.92;;
53646;SDS011;39550;52.230;5.194;2023-04-25T05:23:32;6.13;;;2.65;;
53646;SDS011;39550;52.230;5.194;2023-04-25T05:25:58;7.45;;;3.50;;
53646;SDS011;39550;52.230;5.194;2023-04-25T05:28:24;8.32;;;3.25;;
53646;SDS011;39550;52.230;5.194;2023-04-25T05:30:49;5.32;;;2.70;;
53646;SDS011;39550;52.230;5.194;2023-04-25T05:33:15;7.07;;;2.75;;
53646;SDS011;39550;52.230;5.194;2023-04-25T05:35:40;8.82;;;3.13;;
53646;SDS011;39550;52.230;5.194;2023-04-25T05:38:06;6.13;;;2.60;;
53646;SDS011;39550;52.230;5.194;2023-04-25T05:40:31;5.80;;;2.60;;
53646;SDS011;39550;52.230;5.194;2023-04-25T05:42:57;7.47;;;3.03;;
53646;SDS011;39550;52.230;5.194;2023-04-25T05:45:22;5.10;;;2.60;;
53646;SDS011;39550;52.230;5.194;2023-04-25T05:47:48;8.45;;;3.20;;
53646;SDS011;39550;52.230;5.194;2023-04-25T05:50:13;16.65;;;3.15;;
53646;SDS011;39550;52.230;5.194;2023-04-25T05:52:38;8.85;;;3.20;;
53646;SDS011;39550;52.230;5.194;2023-04-25T05:55:04;7.18;;;3.00;;
53646;SDS011;39550;52.230;5.194;2023-04-25T05:57:30;7.68;;;2.80;;
53646;SDS011;39550;52.230;5.194;2023-04-25T05:59:56;6.45;;;2.50;;
53646;SDS011;39550;52.230;5.194;2023-04-25T06:02:21;8.55;;;2.78;;
53646;SDS011;39550;52.230;5.194;2023-04-25T06:04:47;6.50;;;2.55;;
53646;SDS011;39550;52.230;5.194;2023-04-25T06:07:14;5.40;;;2.63;;
53646;SDS011;39550;52.230;5.194;2023-04-25T06:09:40;6.57;;;2.83;;
53646;SDS011;39550;52.230;5.194;2023-04-25T06:12:05;6.28;;;2.63;;
53646;SDS011;39550;52.230;5.194;2023-04-25T06:14:31;8.70;;;3.08;;
53646;SDS011;39550;52.230;5.194;2023-04-25T06:16:57;6.88;;;2.50;;
53646;SDS011;39550;52.230;5.194;2023-04-25T06:19:22;8.68;;;2.60;;
53646;SDS011;39550;52.230;5.194;2023-04-25T06:21:48;7.68;;;2.80;;
53646;SDS011;39550;52.230;5.194;2023-04-25T06:24:13;6.45;;;2.70;;
53646;SDS011;39550;52.230;5.194;2023-04-25T06:26:38;10.30;;;2.90;;
53646;SDS011;39550;52.230;5.194;2023-04-25T06:29:04;7.97;;;3.50;;
53646;SDS011;39550;52.230;5.194;2023-04-25T06:31:29;5.80;;;2.70;;
53646;SDS011;39550;52.230;5.194;2023-04-25T06:33:57;6.68;;;3.03;;
53646;SDS011;39550;52.230;5.194;2023-04-25T06:36:22;7.95;;;3.17;;
53646;SDS011;39550;52.230;5.194;2023-04-25T06:38:50;6.20;;;2.60;;
53646;SDS011;39550;52.230;5.194;2023-04-25T06:41:16;7.57;;;2.83;;
53646;SDS011;39550;52.230;5.194;2023-04-25T06:43:41;7.28;;;3.25;;
53646;SDS011;39550;52.230;5.194;2023-04-25T06:46:06;5.88;;;2.85;;
53646;SDS011;39550;52.230;5.194;2023-04-25T06:48:32;6.15;;;2.83;;
53646;SDS011;39550;52.230;5.194;2023-04-25T06:50:57;5.78;;;2.60;;
53646;SDS011;39550;52.230;5.194;2023-04-25T06:53:22;7.90;;;2.83;;
53646;SDS011;39550;52.230;5.194;2023-04-25T06:55:48;6.88;;;2.90;;
53646;SDS011;39550;52.230;5.194;2023-04-25T06:58:13;7.68;;;2.83;;
53646;SDS011;39550;52.230;5.194;2023-04-25T07:00:38;6.15;;;2.72;;
53646;SDS011;39550;52.230;5.194;2023-04-25T07:03:03;6.50;;;2.60;;
53646;SDS011;39550;52.230;5.194;2023-04-25T07:05:29;5.45;;;2.60;;
53646;SDS011;39550;52.230;5.194;2023-04-25T07:07:54;5.97;;;2.90;;
53646;SDS011;39550;52.230;5.194;2023-04-25T07:10:19;6.60;;;2.80;;
53646;SDS011;39550;52.230;5.194;2023-04-25T07:12:46;6.43;;;2.75;;
53646;SDS011;39550;52.230;5.194;2023-04-25T07:15:11;7.28;;;2.90;;
53646;SDS011;39550;52.230;5.194;2023-04-25T07:17:37;8.20;;;3.08;;
53646;SDS011;39550;52.230;5.194;2023-04-25T07:20:06;4.55;;;2.58;;
53646;SDS011;39550;52.230;5.194;2023-04-25T07:22:32;6.82;;;3.00;;
53646;SDS011;39550;52.230;5.194;2023-04-25T07:24:58;6.07;;;2.85;;
53646;SDS011;39550;52.230;5.194;2023-04-25T07:27:23;5.90;;;2.60;;
53646;SDS011;39550;52.230;5.194;2023-04-25T07:29:48;7.35;;;2.97;;
53646;SDS011;39550;52.230;5.194;2023-04-25T07:32:14;6.97;;;3.03;;
53646;SDS011;39550;52.230;5.194;2023-04-25T07:34:39;6.18;;;3.05;;
53646;SDS011;39550;52.230;5.194;2023-04-25T07:37:05;8.48;;;2.80;;
53646;SDS011;39550;52.230;5.194;2023-04-25T07:39:30;6.88;;;2.60;;
53646;SDS011;39550;52.230;5.194;2023-04-25T07:41:56;5.63;;;2.97;;
53646;SDS011;39550;52.230;5.194;2023-04-25T07:44:23;4.55;;;2.70;;
53646;SDS011;39550;52.230;5.194;2023-04-25T07:46:49;4.78;;;2.53;;
53646;SDS011;39550;52.230;5.194;2023-04-25T07:49:15;7.50;;;2.58;;
53646;SDS011;39550;52.230;5.194;2023-04-25T07:51:40;8.10;;;2.90;;
53646;SDS011;39550;52.230;5.194;2023-04-25T07:54:08;6.55;;;2.90;;
53646;SDS011;39550;52.230;5.194;2023-04-25T07:56:33;6.18;;;2.60;;
53646;SDS011;39550;52.230;5.194;2023-04-25T07:58:59;5.70;;;2.63;;
53646;SDS011;39550;52.230;5.194;2023-04-25T08:01:25;6.63;;;2.40;;
53646;SDS011;39550;52.230;5.194;2023-04-25T08:03:51;5.20;;;2.70;;
53646;SDS011;39550;52.230;5.194;2023-04-25T08:06:17;5.88;;;2.45;;
53646;SDS011;39550;52.230;5.194;2023-04-25T08:08:42;4.85;;;2.30;;
53646;SDS011;39550;52.230;5.194;2023-04-25T08:11:08;7.05;;;3.00;;
53646;SDS011;39550;52.230;5.194;2023-04-25T08:13:33;8.23;;;2.55;;
53646;SDS011;39550;52.230;5.194;2023-04-25T08:15:58;7.63;;;2.80;;
53646;SDS011;39550;52.230;5.194;2023-04-25T08:18:23;5.63;;;2.33;;
53646;SDS011;39550;52.230;5.194;2023-04-25T08:20:49;6.22;;;2.50;;
53646;SDS011;39550;52.230;5.194;2023-04-25T08:23:14;6.63;;;2.90;;
53646;SDS011;39550;52.230;5.194;2023-04-25T08:25:40;6.28;;;2.78;;
53646;SDS011;39550;52.230;5.194;2023-04-25T08:28:05;6.85;;;2.50;;
53646;SDS011;39550;52.230;5.194;2023-04-25T08:30:31;7.68;;;2.80;;
53646;SDS011;39550;52.230;5.194;2023-04-25T08:32:56;9.02;;;2.65;;
53646;SDS011;39550;52.230;5.194;2023-04-25T08:35:22;9.18;;;2.90;;
53646;SDS011;39550;52.230;5.194;2023-04-25T08:37:48;6.57;;;3.10;;
53646;SDS011;39550;52.230;5.194;2023-04-25T08:40:14;6.10;;;2.60;;
53646;SDS011;39550;52.230;5.194;2023-04-25T08:42:43;7.05;;;2.70;;
53646;SDS011;39550;52.230;5.194;2023-04-25T08:45:10;5.68;;;2.20;;
53646;SDS011;39550;52.230;5.194;2023-04-25T08:47:37;5.88;;;2.53;;
53646;SDS011;39550;52.230;5.194;2023-04-25T08:50:03;5.10;;;1.95;;
53646;SDS011;39550;52.230;5.194;2023-04-25T08:52:32;6.10;;;2.53;;
53646;SDS011;39550;52.230;5.194;2023-04-25T08:55:01;5.53;;;2.40;;
53646;SDS011;39550;52.230;5.194;2023-04-25T08:57:28;6.35;;;2.60;;
53646;SDS011;39550;52.230;5.194;2023-04-25T08:59:54;7.93;;;2.80;;
53646;SDS011;39550;52.230;5.194;2023-04-25T09:02:20;7.50;;;2.63;;
53646;SDS011;39550;52.230;5.194;2023-04-25T09:04:46;6.75;;;2.67;;
53646;SDS011;39550;52.230;5.194;2023-04-25T09:07:13;7.30;;;2.85;;
53646;SDS011;39550;52.230;5.194;2023-04-25T09:09:43;7.60;;;2.38;;
53646;SDS011;39550;52.230;5.194;2023-04-25T09:12:08;8.13;;;2.30;;
53646;SDS011;39550;52.230;5.194;2023-04-25T09:14:35;5.32;;;2.75;;
53646;SDS011;39550;52.230;5.194;2023-04-25T09:17:01;5.75;;;2.60;;
53646;SDS011;39550;52.230;5.194;2023-04-25T09:19:33;4.95;;;2.33;;
53646;SDS011;39550;52.230;5.194;2023-04-25T09:22:01;7.18;;;2.55;;
53646;SDS011;39550;52.230;5.194;2023-04-25T09:24:38;5.60;;;2.30;;
53646;SDS011;39550;52.230;5.194;2023-04-25T09:27:07;6.53;;;2.50;;
53646;SDS011;39550;52.230;5.194;2023-04-25T09:29:34;6.30;;;2.30;;
53646;SDS011;39550;52.230;5.194;2023-04-25T09:32:18;7.43;;;2.45;;
53646;SDS011;39550;52.230;5.194;2023-04-25T09:34:44;5.20;;;2.30;;
53646;SDS011;39550;52.230;5.194;2023-04-25T09:37:22;7.72;;;2.50;;
53646;SDS011;39550;52.230;5.194;2023-04-25T09:39:50;8.05;;;2.33;;
53646;SDS011;39550;52.230;5.194;2023-04-25T09:42:18;7.70;;;2.40;;
53646;SDS011;39550;52.230;5.194;2023-04-25T09:44:47;5.50;;;2.30;;
53646;SDS011;39550;52.230;5.194;2023-04-25T09:47:13;5.50;;;2.30;;
53646;SDS011;39550;52.230;5.194;2023-04-25T09:49:41;6.93;;;2.42;;
53646;SDS011;39550;52.230;5.194;2023-04-25T09:52:07;6.07;;;2.92;;
53646;SDS011;39550;52.230;5.194;2023-04-25T09:54:34;5.40;;;2.08;;
53646;SDS011;39550;52.230;5.194;2023-04-25T09:57:02;6.00;;;2.40;;
53646;SDS011;39550;52.230;5.194;2023-04-25T09:59:54;6.57;;;2.58;;
53646;SDS011;39550;52.230;5.194;2023-04-25T10:02:24;5.32;;;2.55;;
53646;SDS011;39550;52.230;5.194;2023-04-25T10:04:53;7.53;;;2.50;;
53646;SDS011;39550;52.230;5.194;2023-04-25T10:07:20;8.50;;;2.67;;
53646;SDS011;39550;52.230;5.194;2023-04-25T10:09:50;6.22;;;2.20;;
53646;SDS011;39550;52.230;5.194;2023-04-25T10:12:29;7.03;;;2.92;;
53646;SDS011;39550;52.230;5.194;2023-04-25T10:14:58;4.47;;;2.15;;
53646;SDS011;39550;52.230;5.194;2023-04-25T10:17:25;6.32;;;2.10;;
53646;SDS011;39550;52.230;5.194;2023-04-25T10:19:52;6.72;;;2.47;;
53646;SDS011;39550;52.230;5.194;2023-04-25T10:24:53;6.95;;;2.33;;
53646;SDS011;39550;52.230;5.194;2023-04-25T10:27:21;6.03;;;2.30;;
53646;SDS011;39550;52.230;5.194;2023-04-25T10:29:51;5.97;;;2.40;;
53646;SDS011;39550;52.230;5.194;2023-04-25T10:32:25;8.98;;;2.60;;
53646;SDS011;39550;52.230;5.194;2023-04-25T10:34:51;5.97;;;2.47;;
53646;SDS011;39550;52.230;5.194;2023-04-25T10:37:16;5.22;;;2.20;;
53646;SDS011;39550;52.230;5.194;2023-04-25T10:39:44;7.35;;;2.85;;
53646;SDS011;39550;52.230;5.194;2023-04-25T10:42:10;7.45;;;2.20;;
53646;SDS011;39550;52.230;5.194;2023-04-25T10:44:37;6.88;;;2.47;;
53646;SDS011;39550;52.230;5.194;2023-04-25T10:47:03;6.72;;;2.30;;
53646;SDS011;39550;52.230;5.194;2023-04-25T10:49:32;6.10;;;2.30;;
53646;SDS011;39550;52.230;5.194;2023-04-25T10:52:10;5.80;;;2.47;;
53646;SDS011;39550;52.230;5.194;2023-04-25T10:54:39;4.15;;;2.13;;
53646;SDS011;39550;52.230;5.194;2023-04-25T11:00:18;6.55;;;2.38;;
53646;SDS011;39550;52.230;5.194;2023-04-25T11:02:48;5.20;;;2.30;;
53646;SDS011;39550;52.230;5.194;2023-04-25T11:05:22;5.82;;;2.55;;
53646;SDS011;39550;52.230;5.194;2023-04-25T11:07:54;4.88;;;2.78;;
53646;SDS011;39550;52.230;5.194;2023-04-25T11:10:25;5.40;;;2.35;;
53646;SDS011;39550;52.230;5.194;2023-04-25T11:12:54;5.25;;;2.60;;
53646;SDS011;39550;52.230;5.194;2023-04-25T11:15:20;6.72;;;2.38;;
53646;SDS011;39550;52.230;5.194;2023-04-25T11:17:45;6.45;;;2.20;;
53646;SDS011;39550;52.230;5.194;2023-04-25T11:20:11;6.65;;;2.42;;
53646;SDS011;39550;52.230;5.194;2023-04-25T11:22:38;5.18;;;2.40;;
53646;SDS011;39550;52.230;5.194;2023-04-25T11:25:07;7.00;;;2.47;;
53646;SDS011;39550;52.230;5.194;2023-04-25T11:27:34;6.63;;;2.40;;
53646;SDS011;39550;52.230;5.194;2023-04-25T11:30:15;6.85;;;2.15;;
53646;SDS011;39550;52.230;5.194;2023-04-25T11:32:41;5.57;;;2.25;;
53646;SDS011;39550;52.230;5.194;2023-04-25T11:35:07;5.88;;;2.20;;
53646;SDS011;39550;52.230;5.194;2023-04-25T11:37:33;4.20;;;2.10;;
53646;SDS011;39550;52.230;5.194;2023-04-25T11:39:59;6.63;;;2.33;;
53646;SDS011;39550;52.230;5.194;2023-04-25T11:42:25;5.55;;;2.30;;
53646;SDS011;39550;52.230;5.194;2023-04-25T11:44:50;6.53;;;2.60;;
53646;SDS011;39550;52.230;5.194;2023-04-25T11:47:16;7.53;;;2.65;;
53646;SDS011;39550;52.230;5.194;2023-04-25T11:49:41;5.70;;;2.20;;
53646;SDS011;39550;52.230;5.194;2023-04-25T11:52:07;5.63;;;2.22;;
53646;SDS011;39550;52.230;5.194;2023-04-25T11:54:34;5.43;;;2.45;;
53646;SDS011;39550;52.230;5.194;2023-04-25T11:57:00;7.85;;;2.42;;
53646;SDS011;39550;52.230;5.194;2023-04-25T11:59:26;5.43;;;2.30;;
53646;SDS011;39550;52.230;5.194;2023-04-25T12:01:52;4.90;;;2.20;;
53646;SDS011;39550;52.230;5.194;2023-04-25T12:04:18;5.40;;;2.40;;
53646;SDS011;39550;52.230;5.194;2023-04-25T12:06:46;8.18;;;2.72;;
53646;SDS011;39550;52.230;5.194;2023-04-25T12:09:13;5.55;;;2.40;;
53646;SDS011;39550;52.230;5.194;2023-04-25T12:11:41;4.30;;;1.90;;
53646;SDS011;39550;52.230;5.194;2023-04-25T12:14:07;4.78;;;2.30;;
53646;SDS011;39550;52.230;5.194;2023-04-25T12:16:54;4.97;;;2.00;;
53646;SDS011;39550;52.230;5.194;2023-04-25T12:19:20;5.72;;;2.03;;
53646;SDS011;39550;52.230;5.194;2023-04-25T12:21:46;6.07;;;2.15;;
53646;SDS011;39550;52.230;5.194;2023-04-25T12:24:14;4.25;;;2.22;;
53646;SDS011;39550;52.230;5.194;2023-04-25T12:26:57;5.63;;;2.42;;
53646;SDS011;39550;52.230;5.194;2023-04-25T12:29:25;6.13;;;2.38;;
53646;SDS011;39550;52.230;5.194;2023-04-25T12:31:52;6.53;;;2.42;;
53646;SDS011;39550;52.230;5.194;2023-04-25T12:34:19;4.95;;;2.40;;
53646;SDS011;39550;52.230;5.194;2023-04-25T12:36:46;5.28;;;2.42;;
53646;SDS011;39550;52.230;5.194;2023-04-25T12:39:18;5.70;;;2.22;;
53646;SDS011;39550;52.230;5.194;2023-04-25T12:41:45;5.85;;;2.20;;
53646;SDS011;39550;52.230;5.194;2023-04-25T12:44:11;5.60;;;2.58;;
53646;SDS011;39550;52.230;5.194;2023-04-25T12:46:37;7.45;;;2.50;;
53646;SDS011;39550;52.230;5.194;2023-04-25T12:49:03;4.25;;;2.15;;
53646;SDS011;39550;52.230;5.194;2023-04-25T12:51:28;4.75;;;2.35;;
53646;SDS011;39550;52.230;5.194;2023-04-25T12:53:54;4.50;;;2.20;;
53646;SDS011;39550;52.230;5.194;2023-04-25T12:56:20;4.75;;;2.00;;
53646;SDS011;39550;52.230;5.194;2023-04-25T12:58:45;6.55;;;2.20;;
53646;SDS011;39550;52.230;5.194;2023-04-25T13:01:11;5.35;;;2.65;;
53646;SDS011;39550;52.230;5.194;2023-04-25T13:03:38;4.93;;;2.25;;
53646;SDS011;39550;52.230;5.194;2023-04-25T13:06:04;7.05;;;2.38;;
53646;SDS011;39550;52.230;5.194;2023-04-25T13:08:32;7.07;;;2.30;;
53646;SDS011;39550;52.230;5.194;2023-04-25T13:10:58;4.30;;;2.03;;
53646;SDS011;39550;52.230;5.194;2023-04-25T13:13:23;4.18;;;2.13;;
53646;SDS011;39550;52.230;5.194;2023-04-25T13:15:48;6.30;;;2.10;;
53646;SDS011;39550;52.230;5.194;2023-04-25T13:18:14;5.97;;;2.20;;
53646;SDS011;39550;52.230;5.194;2023-04-25T13:20:40;6.93;;;2.42;;
53646;SDS011;39550;52.230;5.194;2023-04-25T13:23:05;5.53;;;2.05;;
53646;SDS011;39550;52.230;5.194;2023-04-25T13:25:31;5.50;;;2.33;;
53646;SDS011;39550;52.230;5.194;2023-04-25T13:27:56;5.47;;;2.47;;
53646;SDS011;39550;52.230;5.194;2023-04-25T13:30:22;4.32;;;2.30;;
53646;SDS011;39550;52.230;5.194;2023-04-25T13:32:47;5.00;;;2.03;;
53646;SDS011;39550;52.230;5.194;2023-04-25T13:35:13;5.28;;;2.30;;
53646;SDS011;39550;52.230;5.194;2023-04-25T13:37:38;6.18;;;2.47;;
53646;SDS011;39550;52.230;5.194;2023-04-25T13:40:08;5.88;;;2.40;;
53646;SDS011;39550;52.230;5.194;2023-04-25T13:42:36;4.88;;;2.08;;
53646;SDS011;39550;52.230;5.194;2023-04-25T13:45:02;6.80;;;2.30;;
53646;SDS011;39550;52.230;5.194;2023-04-25T13:47:28;4.20;;;2.17;;
53646;SDS011;39550;52.230;5.194;2023-04-25T13:49:54;5.65;;;2.30;;
53646;SDS011;39550;52.230;5.194;2023-04-25T13:52:22;4.72;;;2.13;;
53646;SDS011;39550;52.230;5.194;2023-04-25T13:54:49;7.20;;;2.15;;
53646;SDS011;39550;52.230;5.194;2023-04-25T13:57:14;4.45;;;2.03;;
53646;SDS011;39550;52.230;5.194;2023-04-25T13:59:40;4.63;;;2.28;;
53646;SDS011;39550;52.230;5.194;2023-04-25T14:02:06;4.30;;;2.20;;
53646;SDS011;39550;52.230;5.194;2023-04-25T14:04:32;4.72;;;2.50;;
53646;SDS011;39550;52.230;5.194;2023-04-25T14:06:58;5.90;;;2.10;;
53646;SDS011;39550;52.230;5.194;2023-04-25T14:09:23;6.47;;;2.45;;
53646;SDS011;39550;52.230;5.194;2023-04-25T14:11:53;5.45;;;2.25;;
53646;SDS011;39550;52.230;5.194;2023-04-25T14:14:20;6.07;;;2.47;;
53646;SDS011;39550;52.230;5.194;2023-04-25T14:16:46;4.75;;;2.10;;
53646;SDS011;39550;52.230;5.194;2023-04-25T14:19:16;5.78;;;2.20;;
53646;SDS011;39550;52.230;5.194;2023-04-25T14:21:42;6.43;;;2.40;;
53646;SDS011;39550;52.230;5.194;2023-04-25T14:24:08;5.82;;;2.47;;
53646;SDS011;39550;52.230;5.194;2023-04-25T14:26:35;5.45;;;2.10;;
53646;SDS011;39550;52.230;5.194;2023-04-25T14:29:01;5.90;;;2.22;;
53646;SDS011;39550;52.230;5.194;2023-04-25T14:31:29;6.70;;;2.90;;
53646;SDS011;39550;52.230;5.194;2023-04-25T14:33:54;6.15;;;2.30;;
53646;SDS011;39550;52.230;5.194;2023-04-25T14:36:20;6.60;;;2.30;;
53646;SDS011;39550;52.230;5.194;2023-04-25T14:38:46;3.70;;;2.17;;
53646;SDS011;39550;52.230;5.194;2023-04-25T14:41:11;6.28;;;2.10;;
53646;SDS011;39550;52.230;5.194;2023-04-25T14:43:36;4.63;;;1.90;;
53646;SDS011;39550;52.230;5.194;2023-04-25T14:46:02;5.15;;;2.55;;
53646;SDS011;39550;52.230;5.194;2023-04-25T14:48:28;4.22;;;2.10;;